Terminal Aerodrome Forecast
Issued by NWS

Home | Current Version | Previous Version | Text Only | Print | Product List | Glossary On
Versions: 1 2 3 4 5 6 7 8 9 10 11 12 13
000
FTUS44 KCRP 270533
TAFLRD
TAF
KLRD 270533Z 2706/2806 13015KT P6SM SCT250
     FM270800 15010KT P6SM SCT015
      TEMPO 2711/2715 BKN015
     FM271500 16012G18KT P6SM SCT025 BKN250
     FM272000 14014G20KT P6SM SCT250
     FM280000 13012KT P6SM SCT250=

USA.gov is the U.S. government's official web portal to all federal, state and local government web resources and services.